Impacts METAR Board
IDs:

KJFK - New York/Kennedy Int, NY, US

Updated at: 0400 UTC 14 Dec 2018
Potential Impact None Slight Moderate High
Time 13/16Z 13/17Z 13/18Z 13/19Z 13/20Z 13/21Z 13/22Z 13/23Z 14/00Z 14/01Z 14/02Z 14/03Z 14/04Z
Temp36 36 37 38 39 38 39 40 42 42 42 42 42
Dewpt30 32 35 36 37 37 38 39 40 39 40 40 41
Altim30.43 30.41 30.40 30.41 30.43 30.45 30.45 30.45 30.47 30.48 30.48 30.48 30.49
VIS9 10 9 10 9 6 10 10 10 10 10 10 10
CIG30 27 23 21 21 15 15 34 32 14 22 29 16
CoverOVCOVCOVCBKNOVCOVCOVCOVCOVCOVCOVCOVCOVC
FltCatMVFRMVFRMVFRMVFRMVFRMVFRMVFRVFRVFRMVFRMVFRMVFRMVFR
WX-RA -SN-RA-RA---RARA BR--------------
WDir6070703302036036070060706040
WSpd9 8 10 5 8 10 9 8 0 8 6 7 5
WGst-- -- -- -- -- -- -- -- -- -- -- -- --
Raw hourly METARs
KJFK 131551Z 06009KT 9SM -RASN OVC030 02/M01 A3043 RMK AO2 RAB50 SLP303 CIG 028V032 P0000 T00221011
KJFK 131651Z 07008KT 10SM -RA BKN027 OVC040 02/00 A3041 RMK AO2 SNE13 SLP298 P0000 T00220000
KJFK 131751Z 07010KT 9SM -RA BKN023 BKN036 OVC044 03/02 A3040 RMK AO2 SLP294 BKN023 V SCT 931000 P0002 60002 T00280017 10028 20006 58010
KJFK 131851Z 33005KT 10SM FEW012 BKN021 BKN030 03/02 A3041 RMK AO2 RAE45 SLP298 P0001 T00330022
KJFK 131951Z 02008KT 9SM -RA BKN021 BKN030 OVC037 04/03 A3043 RMK AO2 RAB47 SLP304 P0000 T00390028
KJFK 132051Z 36010KT 6SM RA BR BKN015 BKN030 OVC048 03/03 A3045 RMK AO2 SLP309 P0005 60006 T00330028 53015
KJFK 132151Z 36009KT 10SM BKN015 OVC029 04/03 A3045 RMK AO2 RAE20 SLP312 P0001 T00390033
KJFK 132251Z 07008KT 10SM FEW018 FEW023 OVC034 04/04 A3045 RMK AO2 SLP311 T00440039
KJFK 132351Z 00000KT 10SM SCT014 SCT020 OVC032 06/04 A3047 RMK AO2 SLP316 60007 T00560044 10056 20028 53004
KJFK 140051Z 06008KT 10SM BKN014 BKN037 OVC110 06/04 A3048 RMK AO2 SLP321 T00560039
KJFK 140203Z 07006KT 10SM FEW014 BKN022 OVC042 06/04 A3048 RMK AO2 T00560044
KJFK 140251Z 06007KT 10SM SCT018 BKN029 OVC045 06/04 A3048 RMK AO2 SLP321 T00560044 51005
KJFK 140351Z 04005KT 10SM BKN016 OVC032 06/05 A3049 RMK AO2 SLP325 T00560050



Page loaded:  04:54 UTC  |   08:54 PM Pacific  |   09:54 PM Mountain  |   10:54 PM Central  |   11:54 PM Eastern

 

ADVISORIES

FORECASTS

FORECASTS

OBSERVATIONS

USER TOOLS

ABOUT US